createdAt,value
2023-01-28T00:01:35.848Z,1.45
2023-01-28T00:04:40.979Z,1.40
2023-01-28T00:07:48.689Z,1.42
2023-01-28T00:10:52.582Z,1.31
2023-01-28T00:13:57.109Z,1.32
2023-01-28T00:17:01.140Z,1.35
2023-01-28T00:20:08.066Z,1.38
2023-01-28T00:23:12.344Z,1.41
2023-01-28T00:26:17.175Z,1.35
2023-01-28T00:29:20.682Z,1.39
2023-01-28T00:32:23.983Z,1.39
2023-01-28T00:35:28.191Z,1.35
2023-01-28T00:38:32.916Z,1.38
2023-01-28T00:41:38.565Z,1.37
2023-01-28T00:44:43.295Z,1.42
2023-01-28T00:47:47.003Z,1.39
2023-01-28T00:50:51.537Z,1.43
2023-01-28T00:53:55.057Z,1.41
2023-01-28T00:57:01.915Z,1.40
2023-01-28T01:00:07.977Z,1.46
2023-01-28T01:03:11.915Z,1.44
2023-01-28T01:06:18.793Z,1.47
2023-01-28T01:09:23.013Z,1.42
2023-01-28T01:12:26.305Z,1.50
2023-01-28T01:15:30.704Z,1.50
2023-01-28T01:18:37.297Z,1.54
2023-01-28T01:21:41.339Z,1.49
2023-01-28T01:24:48.291Z,1.52
2023-01-28T01:27:53.234Z,1.54
2023-01-28T01:31:09.504Z,1.52
2023-01-28T01:34:14.049Z,1.57
2023-01-28T01:37:19.220Z,1.64
2023-01-28T01:40:22.529Z,1.51
2023-01-28T01:43:29.476Z,1.48
2023-01-28T01:46:52.978Z,1.50
2023-01-28T01:49:59.021Z,1.44
2023-01-28T01:53:07.768Z,1.50
2023-01-28T01:56:19.326Z,1.49
2023-01-28T01:59:31.359Z,1.42
2023-01-28T02:02:52.565Z,1.39
2023-01-28T02:05:55.943Z,1.31
2023-01-28T02:09:00.937Z,1.28
2023-01-28T02:12:09.857Z,1.29
2023-01-28T02:15:21.404Z,1.28
2023-01-28T02:18:26.992Z,1.29
2023-01-28T02:21:52.301Z,1.23
2023-01-28T02:25:07.074Z,1.27
2023-01-28T02:28:26.137Z,1.23
2023-01-28T02:31:55.766Z,1.21
2023-01-28T02:35:11.857Z,1.23
2023-01-28T02:38:34.298Z,1.22
2023-01-28T02:41:50.768Z,1.24
2023-01-28T02:44:54.308Z,1.18
2023-01-28T02:48:00.080Z,1.23
2023-01-28T02:51:17.819Z,1.22
2023-01-28T02:54:53.317Z,1.22
2023-01-28T02:58:24.275Z,1.17
2023-01-28T03:01:43.341Z,1.18
2023-01-28T03:05:08.351Z,1.20
2023-01-28T03:08:32.985Z,1.11
2023-01-28T03:12:17.950Z,1.08
2023-01-28T03:15:45.271Z,0.99
2023-01-28T03:19:12.375Z,1.03
2023-01-28T03:22:34.810Z,0.97
2023-01-28T03:26:00.186Z,0.94
2023-01-28T03:29:27.822Z,0.93
2023-01-28T03:32:51.017Z,0.88
2023-01-28T03:36:13.362Z,0.92
2023-01-28T03:39:19.231Z,0.96
2023-01-28T03:42:22.138Z,0.91
2023-01-28T03:45:25.662Z,0.86
2023-01-28T03:48:30.344Z,0.81
2023-01-28T03:51:35.139Z,0.85
2023-01-28T03:54:40.705Z,0.96
2023-01-28T03:57:45.784Z,0.98
2023-01-28T04:00:50.140Z,1.01
2023-01-28T04:03:54.980Z,1.02
2023-01-28T04:06:58.992Z,1.01
2023-01-28T04:10:04.682Z,0.97
2023-01-28T04:13:11.370Z,0.94
2023-01-28T04:16:19.618Z,1.01
2023-01-28T04:19:23.806Z,0.94
2023-01-28T04:22:31.199Z,1.00
2023-01-28T04:25:35.017Z,0.96
2023-01-28T04:28:39.089Z,1.01
2023-01-28T04:31:43.111Z,0.95
2023-01-28T04:34:48.748Z,0.94
2023-01-28T04:37:51.792Z,0.93
2023-01-28T04:40:57.133Z,0.94
2023-01-28T04:44:00.684Z,0.96
2023-01-28T04:47:05.191Z,1.04
2023-01-28T04:50:10.361Z,1.04
2023-01-28T04:53:14.121Z,1.00
2023-01-28T04:56:17.567Z,1.02
2023-01-28T04:59:20.866Z,1.09
2023-01-28T05:02:26.281Z,1.04
2023-01-28T05:05:29.923Z,1.01
2023-01-28T05:08:34.148Z,1.03
2023-01-28T05:11:39.947Z,0.93
2023-01-28T05:14:43.764Z,0.83
2023-01-28T05:17:47.157Z,0.91
2023-01-28T05:20:55.677Z,0.91
2023-01-28T05:23:59.260Z,0.92
2023-01-28T05:27:04.538Z,0.95
2023-01-28T05:30:08.596Z,0.87
2023-01-28T05:33:12.711Z,0.78
2023-01-28T05:36:18.320Z,0.76
2023-01-28T05:39:21.563Z,0.80
2023-01-28T05:42:26.499Z,0.74
2023-01-28T05:45:30.788Z,0.78
2023-01-28T05:48:36.866Z,0.75
2023-01-28T05:51:42.855Z,0.72
2023-01-28T05:54:48.304Z,0.81
2023-01-28T05:57:53.391Z,0.85
2023-01-28T06:00:57.686Z,0.87
2023-01-28T06:04:01.208Z,0.86
2023-01-28T06:07:05.843Z,0.85
2023-01-28T06:10:10.418Z,0.86
2023-01-28T06:13:13.857Z,0.96
2023-01-28T06:16:20.698Z,0.82
2023-01-28T06:19:24.153Z,0.84
2023-01-28T06:22:27.804Z,0.79
2023-01-28T06:25:32.679Z,0.76
2023-01-28T06:28:37.180Z,0.72
2023-01-28T06:31:41.542Z,0.73
2023-01-28T06:34:45.146Z,0.69
2023-01-28T06:37:49.834Z,0.77
2023-01-28T06:40:57.182Z,0.65
2023-01-28T06:44:00.728Z,0.72
2023-01-28T06:47:04.104Z,0.71
2023-01-28T06:50:09.576Z,0.82
2023-01-28T06:53:12.488Z,0.72
2023-01-28T06:56:15.765Z,0.72
2023-01-28T06:59:20.237Z,0.68
2023-01-28T07:02:25.363Z,0.74
2023-01-28T07:05:31.715Z,0.68
2023-01-28T07:08:34.731Z,0.74
2023-01-28T07:11:37.886Z,0.82
2023-01-28T07:14:41.402Z,0.86
2023-01-28T07:17:45.521Z,0.80
2023-01-28T07:20:48.139Z,0.78
2023-01-28T07:23:52.428Z,0.74
2023-01-28T07:26:56.370Z,0.83
2023-01-28T07:29:59.932Z,0.92
2023-01-28T07:33:03.855Z,0.73
2023-01-28T07:36:09.445Z,0.89
2023-01-28T07:39:13.458Z,0.82
2023-01-28T07:42:18.911Z,0.84
2023-01-28T07:45:21.528Z,1.02
2023-01-28T07:48:24.181Z,1.01
2023-01-28T07:51:28.113Z,1.10
2023-01-28T07:54:32.254Z,1.06
2023-01-28T07:57:35.555Z,1.14
2023-01-28T08:00:40.133Z,1.23
2023-01-28T08:03:42.891Z,1.29
2023-01-28T08:06:46.998Z,1.24
2023-01-28T08:09:50.742Z,1.14
2023-01-28T08:12:59.783Z,1.22
2023-01-28T08:16:03.965Z,1.34
2023-01-28T08:19:07.502Z,1.43
2023-01-28T08:22:12.390Z,1.36
2023-01-28T08:25:16.095Z,1.44
2023-01-28T08:28:20.251Z,1.41
2023-01-28T08:31:24.309Z,1.40
2023-01-28T08:34:28.444Z,1.42
2023-01-28T08:37:32.047Z,1.52
2023-01-28T08:40:36.003Z,1.70
2023-01-28T08:43:40.520Z,1.47
2023-01-28T08:46:44.108Z,1.36
2023-01-28T08:49:47.917Z,1.58
2023-01-28T08:53:03.720Z,1.65
2023-01-28T08:56:07.446Z,1.56
2023-01-28T08:59:12.771Z,1.61
2023-01-28T09:02:30.782Z,1.71
2023-01-28T09:05:40.055Z,1.74
2023-01-28T09:08:45.378Z,1.64
2023-01-28T09:11:49.018Z,1.61
2023-01-28T09:14:56.185Z,1.73
2023-01-28T09:18:02.141Z,1.66
2023-01-28T09:21:08.821Z,1.74
2023-01-28T09:24:14.593Z,1.86
2023-01-28T09:27:21.345Z,2.03
2023-01-28T09:30:28.352Z,2.00
2023-01-28T09:33:33.468Z,2.12
2023-01-28T09:36:37.544Z,2.12
2023-01-28T09:39:40.992Z,2.24
2023-01-28T09:43:16.497Z,2.30
2023-01-28T09:46:19.186Z,2.02
2023-01-28T09:49:36.248Z,2.15
2023-01-28T09:52:42.479Z,1.93
2023-01-28T09:55:49.608Z,1.91
2023-01-28T09:58:56.601Z,1.86
2023-01-28T10:02:17.187Z,2.06
2023-01-28T10:05:42.378Z,2.13
2023-01-28T10:09:07.500Z,2.29
2023-01-28T10:12:19.077Z,2.46
2023-01-28T10:15:30.599Z,2.80
2023-01-28T10:18:57.754Z,2.68
2023-01-28T10:22:08.387Z,3.08
2023-01-28T10:25:22.381Z,3.18
2023-01-28T10:28:31.469Z,3.47
2023-01-28T10:31:40.555Z,3.68
2023-01-28T10:34:44.722Z,3.56
2023-01-28T10:37:49.690Z,3.56
2023-01-28T10:40:52.798Z,3.61
2023-01-28T10:43:57.989Z,3.61
2023-01-28T10:47:06.093Z,3.38
2023-01-28T10:50:19.131Z,3.22
2023-01-28T10:53:35.351Z,3.38
2023-01-28T10:56:39.762Z,3.44
2023-01-28T10:59:44.681Z,3.27
2023-01-28T11:02:50.798Z,3.39
2023-01-28T11:05:56.350Z,3.37
2023-01-28T11:09:01.636Z,3.27
2023-01-28T11:12:15.486Z,3.18
2023-01-28T11:15:19.186Z,3.17
2023-01-28T11:18:25.672Z,3.33
2023-01-28T11:21:32.128Z,3.27
2023-01-28T11:24:36.801Z,3.51
2023-01-28T11:27:41.897Z,3.33
2023-01-28T11:30:51.565Z,3.13
2023-01-28T11:34:02.015Z,3.09
2023-01-28T11:37:19.410Z,3.11
2023-01-28T11:40:23.043Z,3.29
2023-01-28T11:43:31.345Z,3.39
2023-01-28T11:46:56.477Z,3.61
2023-01-28T11:50:27.908Z,3.64
2023-01-28T11:54:00.277Z,3.62
2023-01-28T11:57:12.799Z,3.60
2023-01-28T12:00:22.344Z,3.63
2023-01-28T12:03:43.877Z,3.63
2023-01-28T12:07:29.562Z,3.75
2023-01-28T12:10:57.019Z,3.63
2023-01-28T12:14:32.796Z,3.90
2023-01-28T12:17:50.617Z,3.98
2023-01-28T12:21:01.315Z,3.82
2023-01-28T12:24:19.929Z,3.68
2023-01-28T12:27:41.490Z,4.05
2023-01-28T12:31:18.433Z,3.97
2023-01-28T12:34:53.447Z,4.04
2023-01-28T12:38:19.833Z,3.99
2023-01-28T12:41:35.444Z,3.96
2023-01-28T12:44:52.848Z,3.95
2023-01-28T12:48:14.507Z,3.73
2023-01-28T12:51:43.228Z,3.83
2023-01-28T12:55:17.613Z,3.47
2023-01-28T12:59:02.998Z,3.63
2023-01-28T13:02:14.296Z,3.74
2023-01-28T13:05:23.297Z,3.75
2023-01-28T13:08:28.655Z,3.80
2023-01-28T13:11:39.641Z,3.87
2023-01-28T13:14:43.424Z,3.98
2023-01-28T13:18:03.738Z,4.06
2023-01-28T13:21:15.409Z,3.93
2023-01-28T13:24:21.100Z,3.81
2023-01-28T13:27:27.380Z,3.89
2023-01-28T13:30:49.205Z,3.78
2023-01-28T13:33:56.141Z,3.65
2023-01-28T13:37:05.892Z,3.58
2023-01-28T13:40:15.785Z,3.75
2023-01-28T13:43:48.197Z,3.69
2023-01-28T13:46:51.518Z,3.67
2023-01-28T13:50:15.828Z,3.51
2023-01-28T13:53:22.803Z,3.70
2023-01-28T13:56:59.245Z,3.79
2023-01-28T14:00:26.709Z,3.86
2023-01-28T14:03:37.959Z,3.79
2023-01-28T14:07:11.408Z,3.89
2023-01-28T14:10:36.677Z,3.86
2023-01-28T14:14:09.933Z,3.94
2023-01-28T14:17:34.116Z,3.66
2023-01-28T14:20:45.098Z,3.72
2023-01-28T14:23:51.955Z,3.70
2023-01-28T14:27:13.968Z,3.43
2023-01-28T14:30:26.994Z,3.61
2023-01-28T14:33:33.566Z,3.42
2023-01-28T14:36:42.604Z,3.35
2023-01-28T14:40:00.982Z,3.11
2023-01-28T14:43:13.909Z,3.13
2023-01-28T14:46:28.493Z,3.17
2023-01-28T14:50:17.333Z,3.16
2023-01-28T14:53:48.806Z,3.17
2023-01-28T14:57:15.803Z,2.98
2023-01-28T15:00:23.706Z,2.89
2023-01-28T15:03:28.795Z,2.78
2023-01-28T15:06:37.187Z,2.80
2023-01-28T15:09:41.110Z,2.78
2023-01-28T15:12:53.020Z,2.81
2023-01-28T15:15:59.160Z,2.85
2023-01-28T15:19:02.776Z,2.68
2023-01-28T15:22:10.055Z,2.67
2023-01-28T15:25:25.748Z,2.67
2023-01-28T15:28:32.762Z,2.69
2023-01-28T15:31:39.923Z,2.56
2023-01-28T15:34:48.133Z,2.48
2023-01-28T15:37:54.710Z,2.53
2023-01-28T15:41:07.952Z,2.50
2023-01-28T15:44:20.656Z,2.39
2023-01-28T15:47:36.670Z,2.31
2023-01-28T15:50:43.444Z,2.38
2023-01-28T15:53:52.567Z,2.34
2023-01-28T15:56:56.056Z,2.30
2023-01-28T16:00:27.305Z,2.22
2023-01-28T16:03:30.494Z,2.16
2023-01-28T16:06:39.945Z,2.15
2023-01-28T16:09:44.703Z,2.14
2023-01-28T16:12:53.730Z,2.05
2023-01-28T16:15:58.988Z,2.04
2023-01-28T16:19:07.291Z,2.06
2023-01-28T16:22:21.541Z,2.07
2023-01-28T16:25:33.516Z,2.11
2023-01-28T16:28:37.459Z,2.06
2023-01-28T16:31:40.472Z,2.03
2023-01-28T16:34:45.602Z,1.99
2023-01-28T16:37:50.077Z,1.96
2023-01-28T16:40:53.111Z,1.94
2023-01-28T16:43:57.329Z,2.00
2023-01-28T16:47:00.766Z,1.95
2023-01-28T16:50:03.822Z,1.89
2023-01-28T16:53:13.225Z,1.86
2023-01-28T16:56:45.766Z,1.84
2023-01-28T16:59:49.966Z,1.85
2023-01-28T17:02:55.259Z,1.71
2023-01-28T17:06:00.076Z,1.72
2023-01-28T17:09:03.080Z,1.67
2023-01-28T17:12:06.470Z,1.66
2023-01-28T17:15:10.588Z,1.66
2023-01-28T17:18:14.375Z,1.61
2023-01-28T17:21:17.972Z,1.66
2023-01-28T17:24:22.917Z,1.66
2023-01-28T17:27:29.485Z,1.61
2023-01-28T17:30:34.401Z,1.56
2023-01-28T17:33:37.544Z,1.57
2023-01-28T17:36:42.250Z,1.54
2023-01-28T17:39:46.055Z,1.56
2023-01-28T17:42:49.970Z,1.53
2023-01-28T17:45:53.612Z,1.57
2023-01-28T17:48:57.389Z,1.54
2023-01-28T17:52:02.048Z,1.47
2023-01-28T17:55:05.851Z,1.54
2023-01-28T17:58:09.334Z,1.55
2023-01-28T18:01:13.220Z,1.54
2023-01-28T18:04:16.229Z,1.53
2023-01-28T18:07:19.745Z,1.46
2023-01-28T18:10:25.794Z,1.45
2023-01-28T18:13:29.125Z,1.51
2023-01-28T18:16:32.901Z,1.52
2023-01-28T18:19:38.270Z,1.46
2023-01-28T18:22:43.272Z,1.47
2023-01-28T18:25:47.312Z,1.45
2023-01-28T18:28:51.423Z,1.50
2023-01-28T18:31:56.296Z,1.50
2023-01-28T18:34:59.596Z,1.49
2023-01-28T18:38:03.984Z,1.51
2023-01-28T18:41:08.306Z,1.50
2023-01-28T18:44:13.221Z,1.50
2023-01-28T18:47:20.513Z,1.50
2023-01-28T18:50:24.852Z,1.47
2023-01-28T18:53:27.843Z,1.42
2023-01-28T18:56:33.086Z,1.49
2023-01-28T18:59:36.391Z,1.48
2023-01-28T19:02:40.066Z,1.48
2023-01-28T19:05:43.363Z,1.43
2023-01-28T19:08:51.508Z,1.44
2023-01-28T19:11:54.846Z,1.47
2023-01-28T19:14:57.714Z,1.50
2023-01-28T19:17:59.942Z,1.44
2023-01-28T19:21:07.265Z,1.41
2023-01-28T19:24:14.495Z,1.45
2023-01-28T19:27:18.627Z,1.48
2023-01-28T19:30:22.640Z,1.49
2023-01-28T19:33:25.261Z,1.50
2023-01-28T19:36:31.392Z,1.42
2023-01-28T19:39:35.245Z,1.40
2023-01-28T19:42:42.018Z,1.41
2023-01-28T19:45:45.268Z,1.39
2023-01-28T19:48:48.582Z,1.38
2023-01-28T19:51:51.978Z,1.45
2023-01-28T19:54:55.928Z,1.37
2023-01-28T19:57:58.498Z,1.39
2023-01-28T20:01:06.348Z,1.38
2023-01-28T20:04:09.872Z,1.39
2023-01-28T20:07:12.891Z,1.40
2023-01-28T20:10:16.864Z,1.37
2023-01-28T20:13:20.531Z,1.34
2023-01-28T20:16:33.872Z,1.34
2023-01-28T20:19:38.393Z,1.41
2023-01-28T20:22:43.076Z,1.39
2023-01-28T20:25:58.019Z,1.40
2023-01-28T20:29:04.382Z,1.37
2023-01-28T20:32:16.547Z,1.36
2023-01-28T20:35:23.255Z,1.37
2023-01-28T20:38:26.164Z,1.40
2023-01-28T20:41:31.594Z,1.39
2023-01-28T20:44:35.067Z,1.42
2023-01-28T20:47:38.310Z,1.45
2023-01-28T20:50:41.498Z,1.48
2023-01-28T20:53:45.713Z,1.42
2023-01-28T20:56:50.289Z,1.44
2023-01-28T20:59:55.266Z,1.42
2023-01-28T21:03:01.994Z,1.41
2023-01-28T21:06:05.037Z,1.46
2023-01-28T21:09:09.566Z,1.36
2023-01-28T21:12:14.712Z,1.35
2023-01-28T21:15:18.739Z,1.34
2023-01-28T21:18:25.628Z,1.36
2023-01-28T21:21:29.625Z,1.25
2023-01-28T21:24:35.641Z,1.26
2023-01-28T21:27:42.157Z,1.22
2023-01-28T21:30:50.994Z,1.21
2023-01-28T21:33:57.578Z,1.19
2023-01-28T21:37:01.620Z,1.21
2023-01-28T21:40:09.375Z,1.13
2023-01-28T21:43:16.567Z,1.14
2023-01-28T21:46:23.850Z,1.04
2023-01-28T21:49:27.359Z,1.06
2023-01-28T21:52:31.504Z,1.03
2023-01-28T21:55:36.720Z,0.98
2023-01-28T21:58:59.151Z,1.04
2023-01-28T22:02:13.015Z,0.97
2023-01-28T22:05:18.566Z,0.98
2023-01-28T22:08:23.195Z,1.06
2023-01-28T22:11:27.391Z,1.09
2023-01-28T22:14:32.736Z,1.07
2023-01-28T22:17:37.506Z,1.05
2023-01-28T22:20:42.403Z,1.06
2023-01-28T22:23:46.698Z,1.07
2023-01-28T22:26:50.066Z,1.05
2023-01-28T22:29:57.357Z,1.10
2023-01-28T22:33:01.254Z,1.24
2023-01-28T22:36:10.291Z,1.16
2023-01-28T22:39:16.007Z,1.12
2023-01-28T22:42:20.017Z,1.19
2023-01-28T22:45:23.150Z,1.22
2023-01-28T22:48:26.452Z,1.23
2023-01-28T22:51:36.363Z,1.23
2023-01-28T22:54:41.704Z,1.24
2023-01-28T22:57:45.765Z,1.24
2023-01-28T23:00:49.839Z,1.23
2023-01-28T23:03:53.587Z,1.31
2023-01-28T23:06:57.522Z,1.28
2023-01-28T23:10:02.879Z,1.26
2023-01-28T23:13:05.945Z,1.25
2023-01-28T23:16:28.177Z,1.26
2023-01-28T23:19:51.351Z,1.24
2023-01-28T23:23:14.655Z,1.16
2023-01-28T23:26:17.505Z,1.17
2023-01-28T23:29:26.889Z,1.15
2023-01-28T23:32:30.178Z,1.10
2023-01-28T23:35:34.191Z,1.05
2023-01-28T23:38:38.890Z,1.01
2023-01-28T23:41:44.088Z,1.08
2023-01-28T23:44:48.101Z,1.10
2023-01-28T23:47:53.320Z,1.02
2023-01-28T23:50:56.924Z,1.00
2023-01-28T23:54:00.324Z,0.99
2023-01-28T23:57:07.305Z,1.00
